Xifengzhen, China
Current Conditions -  °F | °C
As of 6:00 PM on Friday 31 Oct 2014 (Local Time) from ZLXY Reporting Station
Scattered Clouds Scattered Clouds  
Wind Chill: 55°   Ceiling: Unl
Heat Index: 55°   Visibility: 6mi
Dew Point: 39°   Wind: 11mph
Humidity: 54%   Direction: 250°WSW
Pressure: 30.15"   Gusts: NA
Location:  35.73°N, 107.63°E
Report Text: ZLXY 311000Z 25005MPS 9999 SCT060 13/04 Q1021 NOSIG
Loading
Personal Weather Stations






























Interactive Weather Map
Tropical Storm Tracking
New forecast layout! Learn more

10-Day Weather Forecast

Advertisements
Track Severe Weather on mobile